sensor_id;sensor_type;location;lat;lon;timestamp;pressure;altitude;pressure_sealevel;temperature;humidity
62978;BME280;49073;42.352;23.808;2023-09-18T00:02:36;95255.78;;;16.98;100.00
62978;BME280;49073;42.352;23.808;2023-09-18T00:05:37;95246.50;;;16.89;100.00
62978;BME280;49073;42.352;23.808;2023-09-18T00:08:39;95253.88;;;16.99;100.00
62978;BME280;49073;42.352;23.808;2023-09-18T00:11:40;95255.03;;;17.01;100.00
62978;BME280;49073;42.352;23.808;2023-09-18T00:14:40;95253.03;;;16.84;100.00
62978;BME280;49073;42.352;23.808;2023-09-18T00:17:42;95251.91;;;16.89;100.00
62978;BME280;49073;42.352;23.808;2023-09-18T00:20:43;95257.22;;;16.70;100.00
62978;BME280;49073;42.352;23.808;2023-09-18T00:23:44;95257.59;;;16.72;100.00
62978;BME280;49073;42.352;23.808;2023-09-18T00:26:44;95244.47;;;16.60;100.00
62978;BME280;49073;42.352;23.808;2023-09-18T00:29:47;95242.97;;;16.66;100.00
62978;BME280;49073;42.352;23.808;2023-09-18T00:32:57;95247.19;;;16.71;100.00
62978;BME280;49073;42.352;23.808;2023-09-18T00:36:51;95234.94;;;16.81;100.00
62978;BME280;49073;42.352;23.808;2023-09-18T00:39:52;95238.41;;;16.81;100.00
62978;BME280;49073;42.352;23.808;2023-09-18T00:42:52;95240.28;;;16.66;100.00
62978;BME280;49073;42.352;23.808;2023-09-18T00:45:53;95238.34;;;16.67;100.00
62978;BME280;49073;42.352;23.808;2023-09-18T00:48:54;95233.72;;;16.64;100.00
62978;BME280;49073;42.352;23.808;2023-09-18T00:51:55;95223.41;;;16.77;100.00
62978;BME280;49073;42.352;23.808;2023-09-18T00:54:56;95239.97;;;16.82;100.00
62978;BME280;49073;42.352;23.808;2023-09-18T00:57:56;95244.56;;;16.89;100.00
62978;BME280;49073;42.352;23.808;2023-09-18T01:00:57;95241.88;;;16.82;100.00
62978;BME280;49073;42.352;23.808;2023-09-18T01:03:59;95242.28;;;16.91;100.00
62978;BME280;49073;42.352;23.808;2023-09-18T01:07:00;95241.84;;;16.78;100.00
62978;BME280;49073;42.352;23.808;2023-09-18T01:10:04;95243.00;;;16.77;100.00
62978;BME280;49073;42.352;23.808;2023-09-18T01:13:11;95244.16;;;16.80;100.00
62978;BME280;49073;42.352;23.808;2023-09-18T01:16:41;95251.50;;;16.90;100.00
62978;BME280;49073;42.352;23.808;2023-09-18T01:19:46;95248.03;;;16.93;100.00
62978;BME280;49073;42.352;23.808;2023-09-18T01:22:47;95246.50;;;16.92;100.00
62978;BME280;49073;42.352;23.808;2023-09-18T01:25:50;95250.41;;;17.02;100.00
62978;BME280;49073;42.352;23.808;2023-09-18T01:28:51;95244.66;;;17.00;100.00
62978;BME280;49073;42.352;23.808;2023-09-18T01:31:52;95248.50;;;17.06;100.00
62978;BME280;49073;42.352;23.808;2023-09-18T01:34:54;95253.50;;;17.04;100.00
62978;BME280;49073;42.352;23.808;2023-09-18T01:37:57;95248.50;;;16.99;100.00
62978;BME280;49073;42.352;23.808;2023-09-18T01:41:00;95245.78;;;17.02;100.00
62978;BME280;49073;42.352;23.808;2023-09-18T01:44:01;95246.19;;;17.01;100.00
62978;BME280;49073;42.352;23.808;2023-09-18T01:47:11;95241.56;;;17.01;100.00
62978;BME280;49073;42.352;23.808;2023-09-18T01:50:13;95239.22;;;16.96;100.00
62978;BME280;49073;42.352;23.808;2023-09-18T01:53:14;95245.75;;;16.92;100.00
62978;BME280;49073;42.352;23.808;2023-09-18T01:56:14;95247.69;;;16.95;100.00
62978;BME280;49073;42.352;23.808;2023-09-18T01:59:15;95248.53;;;17.10;100.00
62978;BME280;49073;42.352;23.808;2023-09-18T02:02:16;95239.69;;;17.13;100.00
62978;BME280;49073;42.352;23.808;2023-09-18T02:05:16;95245.84;;;17.10;100.00
62978;BME280;49073;42.352;23.808;2023-09-18T02:08:18;95258.09;;;17.04;100.00
62978;BME280;49073;42.352;23.808;2023-09-18T02:11:18;95252.72;;;17.04;100.00
62978;BME280;49073;42.352;23.808;2023-09-18T02:14:19;95253.91;;;17.13;100.00
62978;BME280;49073;42.352;23.808;2023-09-18T02:17:20;95262.00;;;17.10;100.00
62978;BME280;49073;42.352;23.808;2023-09-18T02:20:21;95251.22;;;17.13;100.00
62978;BME280;49073;42.352;23.808;2023-09-18T02:23:21;95256.94;;;17.05;100.00
62978;BME280;49073;42.352;23.808;2023-09-18T02:26:23;95256.56;;;17.02;100.00
62978;BME280;49073;42.352;23.808;2023-09-18T02:29:24;95256.53;;;16.92;100.00
62978;BME280;49073;42.352;23.808;2023-09-18T02:32:25;95251.88;;;16.81;100.00
62978;BME280;49073;42.352;23.808;2023-09-18T02:35:26;95257.31;;;16.99;100.00
62978;BME280;49073;42.352;23.808;2023-09-18T02:38:28;95254.25;;;17.05;100.00
62978;BME280;49073;42.352;23.808;2023-09-18T02:41:28;95254.25;;;17.01;100.00
62978;BME280;49073;42.352;23.808;2023-09-18T02:44:29;95265.06;;;17.12;100.00
62978;BME280;49073;42.352;23.808;2023-09-18T02:47:29;95260.06;;;17.14;100.00
62978;BME280;49073;42.352;23.808;2023-09-18T02:50:30;95264.34;;;17.29;100.00
62978;BME280;49073;42.352;23.808;2023-09-18T02:53:30;95268.94;;;17.18;100.00
62978;BME280;49073;42.352;23.808;2023-09-18T02:56:31;95263.16;;;17.16;100.00
62978;BME280;49073;42.352;23.808;2023-09-18T02:59:31;95259.28;;;17.13;100.00
62978;BME280;49073;42.352;23.808;2023-09-18T03:02:32;95263.13;;;17.09;100.00
62978;BME280;49073;42.352;23.808;2023-09-18T03:05:32;95265.41;;;17.07;100.00
62978;BME280;49073;42.352;23.808;2023-09-18T03:08:33;95266.97;;;17.08;100.00
62978;BME280;49073;42.352;23.808;2023-09-18T03:11:35;95269.66;;;17.11;100.00
62978;BME280;49073;42.352;23.808;2023-09-18T03:14:35;95261.63;;;17.15;100.00
62978;BME280;49073;42.352;23.808;2023-09-18T03:17:36;95260.47;;;17.23;100.00
62978;BME280;49073;42.352;23.808;2023-09-18T03:20:37;95258.91;;;17.15;100.00
62978;BME280;49073;42.352;23.808;2023-09-18T03:23:37;95253.53;;;17.19;100.00
62978;BME280;49073;42.352;23.808;2023-09-18T03:26:38;95253.94;;;17.24;100.00
62978;BME280;49073;42.352;23.808;2023-09-18T03:29:38;95257.41;;;17.21;100.00
62978;BME280;49073;42.352;23.808;2023-09-18T03:32:40;95270.84;;;17.21;100.00
62978;BME280;49073;42.352;23.808;2023-09-18T03:35:51;95254.69;;;17.18;100.00
62978;BME280;49073;42.352;23.808;2023-09-18T03:38:54;95251.22;;;17.17;100.00
62978;BME280;49073;42.352;23.808;2023-09-18T03:41:55;95253.53;;;17.22;100.00
62978;BME280;49073;42.352;23.808;2023-09-18T03:44:56;95250.44;;;17.13;100.00
62978;BME280;49073;42.352;23.808;2023-09-18T03:47:57;95247.00;;;17.23;100.00
62978;BME280;49073;42.352;23.808;2023-09-18T03:50:57;95242.75;;;17.15;100.00
62978;BME280;49073;42.352;23.808;2023-09-18T03:53:58;95242.00;;;17.11;100.00
62978;BME280;49073;42.352;23.808;2023-09-18T03:56:58;95238.50;;;17.07;100.00
62978;BME280;49073;42.352;23.808;2023-09-18T03:59:59;95241.56;;;17.05;100.00
62978;BME280;49073;42.352;23.808;2023-09-18T04:02:59;95245.00;;;16.98;100.00
62978;BME280;49073;42.352;23.808;2023-09-18T04:06:00;95237.72;;;17.02;100.00
62978;BME280;49073;42.352;23.808;2023-09-18T04:09:00;95236.59;;;17.11;100.00
62978;BME280;49073;42.352;23.808;2023-09-18T04:12:04;95241.22;;;17.18;100.00
62978;BME280;49073;42.352;23.808;2023-09-18T04:15:08;95235.03;;;17.02;100.00
62978;BME280;49073;42.352;23.808;2023-09-18T04:18:08;95247.28;;;16.96;100.00
62978;BME280;49073;42.352;23.808;2023-09-18T04:21:09;95240.78;;;16.97;100.00
62978;BME280;49073;42.352;23.808;2023-09-18T04:24:10;95231.97;;;17.19;100.00
62978;BME280;49073;42.352;23.808;2023-09-18T04:27:12;95242.00;;;17.22;100.00
62978;BME280;49073;42.352;23.808;2023-09-18T04:30:13;95245.06;;;17.16;100.00
62978;BME280;49073;42.352;23.808;2023-09-18T04:33:14;95243.53;;;17.12;100.00
62978;BME280;49073;42.352;23.808;2023-09-18T04:36:16;95241.56;;;17.05;100.00
62978;BME280;49073;42.352;23.808;2023-09-18T04:39:16;95249.31;;;17.14;100.00
62978;BME280;49073;42.352;23.808;2023-09-18T04:42:17;95260.44;;;17.12;100.00
62978;BME280;49073;42.352;23.808;2023-09-18T04:45:20;95246.56;;;17.03;100.00
62978;BME280;49073;42.352;23.808;2023-09-18T04:48:21;95255.03;;;17.01;100.00
62978;BME280;49073;42.352;23.808;2023-09-18T04:51:21;95253.09;;;17.06;100.00
62978;BME280;49073;42.352;23.808;2023-09-18T04:54:22;95252.75;;;17.07;100.00
62978;BME280;49073;42.352;23.808;2023-09-18T04:57:23;95254.69;;;17.21;100.00
62978;BME280;49073;42.352;23.808;2023-09-18T05:00:24;95242.00;;;17.18;100.00
62978;BME280;49073;42.352;23.808;2023-09-18T05:03:26;95240.84;;;17.19;100.00
62978;BME280;49073;42.352;23.808;2023-09-18T05:06:27;95237.34;;;17.11;100.00
62978;BME280;49073;42.352;23.808;2023-09-18T05:09:28;95243.94;;;17.28;100.00
62978;BME280;49073;42.352;23.808;2023-09-18T05:12:28;95239.69;;;17.24;100.00
62978;BME280;49073;42.352;23.808;2023-09-18T05:15:29;95247.00;;;17.23;100.00
62978;BME280;49073;42.352;23.808;2023-09-18T05:18:30;95245.47;;;17.15;100.00
62978;BME280;49073;42.352;23.808;2023-09-18T05:21:31;95242.72;;;17.00;100.00
62978;BME280;49073;42.352;23.808;2023-09-18T05:24:32;95233.47;;;17.01;100.00
62978;BME280;49073;42.352;23.808;2023-09-18T05:27:32;95236.59;;;17.07;100.00
62978;BME280;49073;42.352;23.808;2023-09-18T05:30:36;95239.66;;;17.16;100.00
62978;BME280;49073;42.352;23.808;2023-09-18T05:33:38;95243.53;;;17.12;100.00
62978;BME280;49073;42.352;23.808;2023-09-18T05:36:40;95241.97;;;17.07;100.00
62978;BME280;49073;42.352;23.808;2023-09-18T05:39:40;95252.38;;;17.12;100.00
62978;BME280;49073;42.352;23.808;2023-09-18T05:42:42;95250.44;;;17.16;100.00
62978;BME280;49073;42.352;23.808;2023-09-18T14:39:39;95037.44;;;22.85;53.24
62978;BME280;49073;42.352;23.808;2023-09-18T14:45:59;95039.81;;;22.66;52.09
62978;BME280;49073;42.352;23.808;2023-09-18T14:53:46;95038.63;;;22.67;52.51
62978;BME280;49073;42.352;23.808;2023-09-18T15:19:39;95040.56;;;21.73;53.34
62978;BME280;49073;42.352;23.808;2023-09-18T15:27:36;95038.78;;;21.62;54.92
62978;BME280;49073;42.352;23.808;2023-09-18T15:30:41;95049.59;;;21.66;54.21
62978;BME280;49073;42.352;23.808;2023-09-18T15:37:41;95045.66;;;21.47;55.68
62978;BME280;49073;42.352;23.808;2023-09-18T15:41:05;95047.03;;;21.35;56.02
62978;BME280;49073;42.352;23.808;2023-09-18T15:55:39;95043.28;;;21.05;56.05
62978;BME280;49073;42.352;23.808;2023-09-18T16:28:07;95039.50;;;21.22;56.84
62978;BME280;49073;42.352;23.808;2023-09-18T16:58:30;95059.00;;;20.04;64.32
62978;BME280;49073;42.352;23.808;2023-09-18T17:12:09;95079.16;;;19.61;65.36
62978;BME280;49073;42.352;23.808;2023-09-18T17:18:35;95075.69;;;19.18;67.87
62978;BME280;49073;42.352;23.808;2023-09-18T17:21:52;95081.50;;;19.17;68.53
62978;BME280;49073;42.352;23.808;2023-09-18T17:24:55;95084.63;;;19.12;68.97
62978;BME280;49073;42.352;23.808;2023-09-18T17:51:05;95113.22;;;18.38;71.29
62978;BME280;49073;42.352;23.808;2023-09-18T17:54:35;95106.72;;;18.32;71.41
62978;BME280;49073;42.352;23.808;2023-09-18T17:58:28;95117.19;;;18.08;72.36
62978;BME280;49073;42.352;23.808;2023-09-18T18:05:45;95129.59;;;17.80;71.94
62978;BME280;49073;42.352;23.808;2023-09-18T18:08:56;95121.84;;;17.86;72.48
62978;BME280;49073;42.352;23.808;2023-09-18T18:16:13;95124.94;;;17.81;72.13
62978;BME280;49073;42.352;23.808;2023-09-18T18:27:59;95137.34;;;17.35;74.08
62978;BME280;49073;42.352;23.808;2023-09-18T18:31:38;95131.56;;;17.18;74.30
62978;BME280;49073;42.352;23.808;2023-09-18T18:35:15;95132.34;;;17.15;74.57
62978;BME280;49073;42.352;23.808;2023-09-18T18:42:50;95115.78;;;16.98;75.31
62978;BME280;49073;42.352;23.808;2023-09-18T18:49:04;95113.50;;;17.04;75.58
62978;BME280;49073;42.352;23.808;2023-09-18T18:56:11;95117.66;;;16.65;76.79
62978;BME280;49073;42.352;23.808;2023-09-18T19:03:17;95132.28;;;16.79;75.39
62978;BME280;49073;42.352;23.808;2023-09-18T19:06:21;95128.78;;;16.60;75.48
62978;BME280;49073;42.352;23.808;2023-09-18T19:13:39;95131.09;;;16.65;74.84
62978;BME280;49073;42.352;23.808;2023-09-18T19:17:06;95131.84;;;16.55;75.45
62978;BME280;49073;42.352;23.808;2023-09-18T19:20:31;95140.69;;;16.59;75.37
62978;BME280;49073;42.352;23.808;2023-09-18T19:23:48;95136.44;;;16.54;75.81
62978;BME280;49073;42.352;23.808;2023-09-18T19:31:10;95135.16;;;16.16;75.92
62978;BME280;49073;42.352;23.808;2023-09-18T19:34:44;95131.69;;;16.15;76.27
62978;BME280;49073;42.352;23.808;2023-09-18T19:38:20;95139.38;;;16.13;76.23
62978;BME280;49073;42.352;23.808;2023-09-18T19:41:41;95133.59;;;16.07;76.34
62978;BME280;49073;42.352;23.808;2023-09-18T19:44:51;95134.72;;;16.03;76.58
62978;BME280;49073;42.352;23.808;2023-09-18T19:48:23;95142.38;;;16.00;76.58
62978;BME280;49073;42.352;23.808;2023-09-18T19:55:23;95133.59;;;16.07;76.73
62978;BME280;49073;42.352;23.808;2023-09-18T20:01:38;95129.22;;;15.84;75.95
62978;BME280;49073;42.352;23.808;2023-09-18T20:05:15;95134.53;;;15.70;77.18
62978;BME280;49073;42.352;23.808;2023-09-18T20:08:53;95138.34;;;15.65;77.87
62978;BME280;49073;42.352;23.808;2023-09-18T20:12:21;95147.44;;;15.46;78.72
62978;BME280;49073;42.352;23.808;2023-09-18T20:19:37;95145.13;;;15.52;78.82
62978;BME280;49073;42.352;23.808;2023-09-18T20:22:41;95150.47;;;15.41;79.22
62978;BME280;49073;42.352;23.808;2023-09-18T20:36:08;95166.84;;;15.28;79.37
62978;BME280;49073;42.352;23.808;2023-09-18T20:39:13;95178.66;;;15.20;79.41
62978;BME280;49073;42.352;23.808;2023-09-18T20:49:29;95174.47;;;15.23;79.21
62978;BME280;49073;42.352;23.808;2023-09-18T20:52:51;95181.63;;;15.08;79.56
62978;BME280;49073;42.352;23.808;2023-09-18T20:56:32;95194.34;;;15.15;78.96
62978;BME280;49073;42.352;23.808;2023-09-18T21:00:28;95190.53;;;15.16;78.67
62978;BME280;49073;42.352;23.808;2023-09-18T21:10:40;95189.56;;;14.97;79.53
62978;BME280;49073;42.352;23.808;2023-09-18T21:26:04;95190.16;;;14.76;80.56
62978;BME280;49073;42.352;23.808;2023-09-18T21:40:12;95199.59;;;14.69;79.61
62978;BME280;49073;42.352;23.808;2023-09-18T21:51:12;95198.31;;;14.22;81.70
62978;BME280;49073;42.352;23.808;2023-09-18T22:19:31;95192.16;;;14.21;81.93
62978;BME280;49073;42.352;23.808;2023-09-18T23:00:22;95193.34;;;13.93;83.76
62978;BME280;49073;42.352;23.808;2023-09-18T23:40:58;95181.81;;;13.89;82.41
